sensor_id;sensor_type;location;lat;lon;timestamp;temperature;humidity
7004;DHT22;3542;48.812;9.146;2023-03-14T00:02:16;9.80;99.90
7004;DHT22;3542;48.812;9.146;2023-03-14T00:04:41;9.80;99.90
7004;DHT22;3542;48.812;9.146;2023-03-14T00:07:07;9.80;99.90
7004;DHT22;3542;48.812;9.146;2023-03-14T00:09:35;9.90;99.90
7004;DHT22;3542;48.812;9.146;2023-03-14T00:12:00;9.90;99.90
7004;DHT22;3542;48.812;9.146;2023-03-14T00:14:28;9.90;99.90
7004;DHT22;3542;48.812;9.146;2023-03-14T00:16:54;9.90;99.90
7004;DHT22;3542;48.812;9.146;2023-03-14T00:19:19;9.80;99.90
7004;DHT22;3542;48.812;9.146;2023-03-14T00:21:44;9.90;99.90
7004;DHT22;3542;48.812;9.146;2023-03-14T00:24:10;9.90;99.90
7004;DHT22;3542;48.812;9.146;2023-03-14T00:26:35;9.90;99.90
7004;DHT22;3542;48.812;9.146;2023-03-14T00:29:01;9.80;99.90
7004;DHT22;3542;48.812;9.146;2023-03-14T00:31:27;9.80;99.90
7004;DHT22;3542;48.812;9.146;2023-03-14T00:33:53;9.80;99.90
7004;DHT22;3542;48.812;9.146;2023-03-14T00:36:19;9.80;99.90
7004;DHT22;3542;48.812;9.146;2023-03-14T00:38:47;9.80;99.90
7004;DHT22;3542;48.812;9.146;2023-03-14T00:41:15;9.80;99.90
7004;DHT22;3542;48.812;9.146;2023-03-14T00:43:41;9.70;99.90
7004;DHT22;3542;48.812;9.146;2023-03-14T00:46:08;9.70;99.90
7004;DHT22;3542;48.812;9.146;2023-03-14T00:48:33;9.70;99.90
7004;DHT22;3542;48.812;9.146;2023-03-14T00:50:59;9.70;99.90
7004;DHT22;3542;48.812;9.146;2023-03-14T00:53:24;9.70;99.90
7004;DHT22;3542;48.812;9.146;2023-03-14T00:55:50;9.80;99.90
7004;DHT22;3542;48.812;9.146;2023-03-14T00:58:17;9.80;99.90
7004;DHT22;3542;48.812;9.146;2023-03-14T01:00:44;9.80;99.90
7004;DHT22;3542;48.812;9.146;2023-03-14T01:03:10;9.80;99.90
7004;DHT22;3542;48.812;9.146;2023-03-14T01:05:36;9.80;99.90
7004;DHT22;3542;48.812;9.146;2023-03-14T01:08:02;9.80;99.90
7004;DHT22;3542;48.812;9.146;2023-03-14T01:10:28;9.80;99.90
7004;DHT22;3542;48.812;9.146;2023-03-14T01:12:54;9.80;99.90
7004;DHT22;3542;48.812;9.146;2023-03-14T01:15:20;9.90;99.90
7004;DHT22;3542;48.812;9.146;2023-03-14T01:17:46;9.90;99.90
7004;DHT22;3542;48.812;9.146;2023-03-14T01:20:12;9.90;99.90
7004;DHT22;3542;48.812;9.146;2023-03-14T01:22:42;9.90;99.90
7004;DHT22;3542;48.812;9.146;2023-03-14T01:25:11;9.90;99.90
7004;DHT22;3542;48.812;9.146;2023-03-14T01:27:37;10.00;99.90
7004;DHT22;3542;48.812;9.146;2023-03-14T01:30:03;9.90;99.90
7004;DHT22;3542;48.812;9.146;2023-03-14T01:32:29;9.90;99.90
7004;DHT22;3542;48.812;9.146;2023-03-14T01:34:55;9.90;99.90
7004;DHT22;3542;48.812;9.146;2023-03-14T01:37:20;9.90;99.90
7004;DHT22;3542;48.812;9.146;2023-03-14T01:39:49;9.90;99.90
7004;DHT22;3542;48.812;9.146;2023-03-14T01:42:15;9.90;99.90
7004;DHT22;3542;48.812;9.146;2023-03-14T01:48:01;9.90;99.90
7004;DHT22;3542;48.812;9.146;2023-03-14T01:50:27;9.90;99.90
7004;DHT22;3542;48.812;9.146;2023-03-14T01:52:52;9.80;99.90
7004;DHT22;3542;48.812;9.146;2023-03-14T01:55:21;9.80;99.90
7004;DHT22;3542;48.812;9.146;2023-03-14T01:57:56;9.80;99.90
7004;DHT22;3542;48.812;9.146;2023-03-14T03:31:07;9.60;99.90
7004;DHT22;3542;48.812;9.146;2023-03-14T03:33:33;9.60;99.90
7004;DHT22;3542;48.812;9.146;2023-03-14T03:35:58;9.60;99.90
7004;DHT22;3542;48.812;9.146;2023-03-14T03:38:24;9.60;99.90
7004;DHT22;3542;48.812;9.146;2023-03-14T03:40:49;9.60;99.90
7004;DHT22;3542;48.812;9.146;2023-03-14T03:43:15;9.60;99.90
7004;DHT22;3542;48.812;9.146;2023-03-14T03:45:40;9.50;99.90
7004;DHT22;3542;48.812;9.146;2023-03-14T03:48:06;9.50;99.90
7004;DHT22;3542;48.812;9.146;2023-03-14T03:50:31;9.50;99.90
7004;DHT22;3542;48.812;9.146;2023-03-14T03:52:57;9.50;99.90
7004;DHT22;3542;48.812;9.146;2023-03-14T03:55:22;9.50;99.90
7004;DHT22;3542;48.812;9.146;2023-03-14T03:57:48;9.50;99.90
7004;DHT22;3542;48.812;9.146;2023-03-14T04:00:13;9.50;99.90
7004;DHT22;3542;48.812;9.146;2023-03-14T04:02:39;9.40;99.90
7004;DHT22;3542;48.812;9.146;2023-03-14T04:05:05;9.40;99.90
7004;DHT22;3542;48.812;9.146;2023-03-14T04:07:33;9.40;99.90
7004;DHT22;3542;48.812;9.146;2023-03-14T04:09:58;9.30;99.90
7004;DHT22;3542;48.812;9.146;2023-03-14T04:12:24;9.30;99.90
7004;DHT22;3542;48.812;9.146;2023-03-14T04:14:49;9.30;99.90
7004;DHT22;3542;48.812;9.146;2023-03-14T04:17:15;9.30;99.90
7004;DHT22;3542;48.812;9.146;2023-03-14T04:19:40;9.30;99.90
7004;DHT22;3542;48.812;9.146;2023-03-14T04:22:07;9.30;99.90
7004;DHT22;3542;48.812;9.146;2023-03-14T04:24:33;9.30;99.90
7004;DHT22;3542;48.812;9.146;2023-03-14T04:26:58;9.30;99.90
7004;DHT22;3542;48.812;9.146;2023-03-14T04:29:24;9.30;99.90
7004;DHT22;3542;48.812;9.146;2023-03-14T04:31:49;9.30;99.90
7004;DHT22;3542;48.812;9.146;2023-03-14T04:34:15;9.20;99.90
7004;DHT22;3542;48.812;9.146;2023-03-14T04:36:40;9.20;99.90
7004;DHT22;3542;48.812;9.146;2023-03-14T04:39:06;9.20;99.90
7004;DHT22;3542;48.812;9.146;2023-03-14T04:41:31;9.10;99.90
7004;DHT22;3542;48.812;9.146;2023-03-14T04:43:57;9.20;99.90
7004;DHT22;3542;48.812;9.146;2023-03-14T04:46:23;9.20;99.90
7004;DHT22;3542;48.812;9.146;2023-03-14T04:48:48;9.10;99.90
7004;DHT22;3542;48.812;9.146;2023-03-14T04:51:14;9.20;99.90
7004;DHT22;3542;48.812;9.146;2023-03-14T04:53:39;9.20;99.90
7004;DHT22;3542;48.812;9.146;2023-03-14T04:56:05;9.10;99.90
7004;DHT22;3542;48.812;9.146;2023-03-14T04:58:31;9.10;99.90
7004;DHT22;3542;48.812;9.146;2023-03-14T05:01:02;9.20;99.90
7004;DHT22;3542;48.812;9.146;2023-03-14T05:03:28;9.20;99.90
7004;DHT22;3542;48.812;9.146;2023-03-14T05:05:54;9.20;99.90
7004;DHT22;3542;48.812;9.146;2023-03-14T05:08:20;9.20;99.90
7004;DHT22;3542;48.812;9.146;2023-03-14T05:10:55;9.20;99.90
7004;DHT22;3542;48.812;9.146;2023-03-14T05:13:22;9.20;99.90
7004;DHT22;3542;48.812;9.146;2023-03-14T05:15:47;9.10;99.90
7004;DHT22;3542;48.812;9.146;2023-03-14T05:18:13;9.10;99.90
7004;DHT22;3542;48.812;9.146;2023-03-14T05:20:39;9.10;99.90
7004;DHT22;3542;48.812;9.146;2023-03-14T05:23:04;9.10;99.90
7004;DHT22;3542;48.812;9.146;2023-03-14T05:25:30;9.10;99.90
7004;DHT22;3542;48.812;9.146;2023-03-14T05:27:55;9.10;99.90
7004;DHT22;3542;48.812;9.146;2023-03-14T05:30:21;9.10;99.90
7004;DHT22;3542;48.812;9.146;2023-03-14T05:32:47;9.10;99.90
7004;DHT22;3542;48.812;9.146;2023-03-14T05:35:13;9.10;99.90
7004;DHT22;3542;48.812;9.146;2023-03-14T05:37:38;9.10;99.90
7004;DHT22;3542;48.812;9.146;2023-03-14T05:40:05;9.10;99.90
7004;DHT22;3542;48.812;9.146;2023-03-14T05:42:32;9.10;99.90
7004;DHT22;3542;48.812;9.146;2023-03-14T05:44:57;9.10;99.90
7004;DHT22;3542;48.812;9.146;2023-03-14T05:47:23;9.10;99.90
7004;DHT22;3542;48.812;9.146;2023-03-14T05:49:48;9.10;99.90
7004;DHT22;3542;48.812;9.146;2023-03-14T05:52:14;9.20;99.90
7004;DHT22;3542;48.812;9.146;2023-03-14T05:54:39;9.10;99.90
7004;DHT22;3542;48.812;9.146;2023-03-14T05:57:05;9.10;99.90
7004;DHT22;3542;48.812;9.146;2023-03-14T05:59:31;9.20;99.90
7004;DHT22;3542;48.812;9.146;2023-03-14T06:01:56;9.20;99.90
7004;DHT22;3542;48.812;9.146;2023-03-14T06:04:22;9.20;99.90
7004;DHT22;3542;48.812;9.146;2023-03-14T06:06:47;9.30;99.90
7004;DHT22;3542;48.812;9.146;2023-03-14T06:09:13;9.30;99.90
7004;DHT22;3542;48.812;9.146;2023-03-14T06:11:38;9.30;99.90
7004;DHT22;3542;48.812;9.146;2023-03-14T06:14:04;9.40;99.90
7004;DHT22;3542;48.812;9.146;2023-03-14T06:16:29;9.30;99.90
7004;DHT22;3542;48.812;9.146;2023-03-14T06:18:57;9.40;99.90
7004;DHT22;3542;48.812;9.146;2023-03-14T06:21:22;9.40;99.90
7004;DHT22;3542;48.812;9.146;2023-03-14T06:23:48;9.40;99.90
7004;DHT22;3542;48.812;9.146;2023-03-14T06:26:14;9.40;99.90
7004;DHT22;3542;48.812;9.146;2023-03-14T06:28:39;9.50;99.90
7004;DHT22;3542;48.812;9.146;2023-03-14T06:31:05;9.60;99.90
7004;DHT22;3542;48.812;9.146;2023-03-14T06:33:31;9.70;99.90
7004;DHT22;3542;48.812;9.146;2023-03-14T06:35:57;9.80;99.90
7004;DHT22;3542;48.812;9.146;2023-03-14T06:38:22;9.90;99.90
7004;DHT22;3542;48.812;9.146;2023-03-14T06:40:48;9.90;99.90
7004;DHT22;3542;48.812;9.146;2023-03-14T06:43:13;10.00;99.90
7004;DHT22;3542;48.812;9.146;2023-03-14T06:45:39;10.20;99.90
7004;DHT22;3542;48.812;9.146;2023-03-14T06:48:04;10.50;99.90
7004;DHT22;3542;48.812;9.146;2023-03-14T06:50:30;11.30;99.90
7004;DHT22;3542;48.812;9.146;2023-03-14T06:52:56;12.60;99.90
7004;DHT22;3542;48.812;9.146;2023-03-14T06:55:21;14.30;99.90
7004;DHT22;3542;48.812;9.146;2023-03-14T06:57:47;15.50;99.90
7004;DHT22;3542;48.812;9.146;2023-03-14T07:00:13;16.30;99.90
7004;DHT22;3542;48.812;9.146;2023-03-14T07:02:39;17.10;99.90
7004;DHT22;3542;48.812;9.146;2023-03-14T07:05:05;17.50;99.90
7004;DHT22;3542;48.812;9.146;2023-03-14T07:07:31;16.90;99.90
7004;DHT22;3542;48.812;9.146;2023-03-14T07:09:56;15.60;99.90
7004;DHT22;3542;48.812;9.146;2023-03-14T07:12:22;15.20;99.90
7004;DHT22;3542;48.812;9.146;2023-03-14T07:14:47;15.90;99.90
7004;DHT22;3542;48.812;9.146;2023-03-14T07:17:13;16.80;99.90
7004;DHT22;3542;48.812;9.146;2023-03-14T07:19:38;17.50;99.90
7004;DHT22;3542;48.812;9.146;2023-03-14T07:22:05;18.50;99.90
7004;DHT22;3542;48.812;9.146;2023-03-14T07:24:30;19.50;99.90
7004;DHT22;3542;48.812;9.146;2023-03-14T07:26:56;20.50;99.90
7004;DHT22;3542;48.812;9.146;2023-03-14T07:29:21;20.10;99.90
7004;DHT22;3542;48.812;9.146;2023-03-14T07:31:47;19.50;99.90
7004;DHT22;3542;48.812;9.146;2023-03-14T07:34:12;19.30;99.90
7004;DHT22;3542;48.812;9.146;2023-03-14T07:36:38;19.00;99.90
7004;DHT22;3542;48.812;9.146;2023-03-14T07:39:03;18.90;99.90
7004;DHT22;3542;48.812;9.146;2023-03-14T07:41:30;18.50;99.90
7004;DHT22;3542;48.812;9.146;2023-03-14T07:43:55;18.30;99.90
7004;DHT22;3542;48.812;9.146;2023-03-14T07:46:21;18.10;99.90
7004;DHT22;3542;48.812;9.146;2023-03-14T07:48:46;18.20;99.90
7004;DHT22;3542;48.812;9.146;2023-03-14T07:51:12;18.00;99.90
7004;DHT22;3542;48.812;9.146;2023-03-14T07:53:38;17.80;99.90
7004;DHT22;3542;48.812;9.146;2023-03-14T07:56:05;17.30;99.90
7004;DHT22;3542;48.812;9.146;2023-03-14T07:58:30;17.20;99.90
7004;DHT22;3542;48.812;9.146;2023-03-14T08:00:58;17.00;99.90
7004;DHT22;3542;48.812;9.146;2023-03-14T08:03:24;16.90;99.90
7004;DHT22;3542;48.812;9.146;2023-03-14T08:05:50;17.20;99.90
7004;DHT22;3542;48.812;9.146;2023-03-14T08:08:16;17.20;99.90
7004;DHT22;3542;48.812;9.146;2023-03-14T08:10:42;17.30;99.90
7004;DHT22;3542;48.812;9.146;2023-03-14T08:13:09;17.40;99.90
7004;DHT22;3542;48.812;9.146;2023-03-14T08:15:35;17.40;99.90
7004;DHT22;3542;48.812;9.146;2023-03-14T08:18:02;17.30;99.90
7004;DHT22;3542;48.812;9.146;2023-03-14T08:20:28;17.40;99.90
7004;DHT22;3542;48.812;9.146;2023-03-14T08:22:58;17.60;99.90
7004;DHT22;3542;48.812;9.146;2023-03-14T08:25:24;17.70;99.90
7004;DHT22;3542;48.812;9.146;2023-03-14T08:27:51;18.00;99.90
7004;DHT22;3542;48.812;9.146;2023-03-14T08:30:18;18.00;99.90
7004;DHT22;3542;48.812;9.146;2023-03-14T08:32:44;18.10;99.90
7004;DHT22;3542;48.812;9.146;2023-03-14T08:35:10;17.60;99.90
7004;DHT22;3542;48.812;9.146;2023-03-14T08:37:36;16.90;99.90
7004;DHT22;3542;48.812;9.146;2023-03-14T08:40:04;16.00;99.90
7004;DHT22;3542;48.812;9.146;2023-03-14T08:42:32;15.70;99.90
7004;DHT22;3542;48.812;9.146;2023-03-14T08:44:58;15.50;99.90
7004;DHT22;3542;48.812;9.146;2023-03-14T08:47:24;15.20;99.90
7004;DHT22;3542;48.812;9.146;2023-03-14T08:49:50;14.90;99.90
7004;DHT22;3542;48.812;9.146;2023-03-14T08:52:15;14.80;99.90
7004;DHT22;3542;48.812;9.146;2023-03-14T08:54:43;15.50;99.90
7004;DHT22;3542;48.812;9.146;2023-03-14T08:57:09;16.00;99.90
7004;DHT22;3542;48.812;9.146;2023-03-14T08:59:34;16.40;99.90
7004;DHT22;3542;48.812;9.146;2023-03-14T09:02:01;16.70;99.90
7004;DHT22;3542;48.812;9.146;2023-03-14T09:04:29;16.60;99.90
7004;DHT22;3542;48.812;9.146;2023-03-14T09:06:55;16.40;99.90
7004;DHT22;3542;48.812;9.146;2023-03-14T09:09:23;16.00;99.90
7004;DHT22;3542;48.812;9.146;2023-03-14T09:11:49;15.60;99.90
7004;DHT22;3542;48.812;9.146;2023-03-14T09:14:14;15.40;99.90
7004;DHT22;3542;48.812;9.146;2023-03-14T09:16:40;15.60;99.90
7004;DHT22;3542;48.812;9.146;2023-03-14T09:19:05;15.50;99.90
7004;DHT22;3542;48.812;9.146;2023-03-14T09:21:31;15.20;99.90
7004;DHT22;3542;48.812;9.146;2023-03-14T09:23:57;15.20;99.90
7004;DHT22;3542;48.812;9.146;2023-03-14T09:26:22;15.20;99.90
7004;DHT22;3542;48.812;9.146;2023-03-14T09:28:48;15.40;99.90
7004;DHT22;3542;48.812;9.146;2023-03-14T09:31:14;15.00;99.90
7004;DHT22;3542;48.812;9.146;2023-03-14T09:33:40;15.00;99.90
7004;DHT22;3542;48.812;9.146;2023-03-14T09:36:06;14.60;99.90
7004;DHT22;3542;48.812;9.146;2023-03-14T09:38:33;14.50;99.90
7004;DHT22;3542;48.812;9.146;2023-03-14T09:41:00;14.40;99.90
7004;DHT22;3542;48.812;9.146;2023-03-14T09:43:29;14.40;99.90
7004;DHT22;3542;48.812;9.146;2023-03-14T09:45:56;14.60;99.90
7004;DHT22;3542;48.812;9.146;2023-03-14T09:48:27;14.70;99.90
7004;DHT22;3542;48.812;9.146;2023-03-14T09:50:58;14.70;99.90
7004;DHT22;3542;48.812;9.146;2023-03-14T09:53:28;14.90;99.90
7004;DHT22;3542;48.812;9.146;2023-03-14T09:55:59;14.90;99.90
7004;DHT22;3542;48.812;9.146;2023-03-14T09:58:26;14.90;99.90
7004;DHT22;3542;48.812;9.146;2023-03-14T10:00:55;14.90;99.90
7004;DHT22;3542;48.812;9.146;2023-03-14T10:03:33;14.80;99.90
7004;DHT22;3542;48.812;9.146;2023-03-14T10:05:59;15.00;99.90
7004;DHT22;3542;48.812;9.146;2023-03-14T10:08:25;15.80;99.90
7004;DHT22;3542;48.812;9.146;2023-03-14T10:10:50;16.50;99.90
7004;DHT22;3542;48.812;9.146;2023-03-14T10:13:24;16.70;99.90
7004;DHT22;3542;48.812;9.146;2023-03-14T10:15:53;17.10;99.90
7004;DHT22;3542;48.812;9.146;2023-03-14T10:18:21;17.10;99.90
7004;DHT22;3542;48.812;9.146;2023-03-14T10:20:48;17.20;99.90
7004;DHT22;3542;48.812;9.146;2023-03-14T10:25:45;17.00;99.90
7004;DHT22;3542;48.812;9.146;2023-03-14T10:28:29;17.00;99.90
7004;DHT22;3542;48.812;9.146;2023-03-14T10:30:56;16.80;99.90
7004;DHT22;3542;48.812;9.146;2023-03-14T10:33:27;16.40;99.90
7004;DHT22;3542;48.812;9.146;2023-03-14T10:38:34;15.40;99.90
7004;DHT22;3542;48.812;9.146;2023-03-14T10:41:01;15.20;99.90
7004;DHT22;3542;48.812;9.146;2023-03-14T10:43:32;15.30;99.90
7004;DHT22;3542;48.812;9.146;2023-03-14T10:46:05;15.50;99.90
7004;DHT22;3542;48.812;9.146;2023-03-14T10:48:36;15.50;99.90
7004;DHT22;3542;48.812;9.146;2023-03-14T10:53:41;15.10;99.90
7004;DHT22;3542;48.812;9.146;2023-03-14T10:56:09;14.90;99.90
7004;DHT22;3542;48.812;9.146;2023-03-14T10:58:41;14.50;99.90
7004;DHT22;3542;48.812;9.146;2023-03-14T11:03:36;14.00;99.90
7004;DHT22;3542;48.812;9.146;2023-03-14T11:08:47;13.80;99.90
7004;DHT22;3542;48.812;9.146;2023-03-14T11:11:22;13.60;99.90
7004;DHT22;3542;48.812;9.146;2023-03-14T11:19:15;13.20;99.90
7004;DHT22;3542;48.812;9.146;2023-03-14T11:22:33;13.10;99.90
7004;DHT22;3542;48.812;9.146;2023-03-14T11:27:41;12.50;99.90
7004;DHT22;3542;48.812;9.146;2023-03-14T11:30:18;12.20;99.90
7004;DHT22;3542;48.812;9.146;2023-03-14T11:35:36;11.70;99.90
7004;DHT22;3542;48.812;9.146;2023-03-14T11:40:36;11.40;99.90
7004;DHT22;3542;48.812;9.146;2023-03-14T11:43:16;11.50;99.90
7004;DHT22;3542;48.812;9.146;2023-03-14T11:45:44;11.40;99.90
7004;DHT22;3542;48.812;9.146;2023-03-14T11:51:20;11.40;99.90
7004;DHT22;3542;48.812;9.146;2023-03-14T11:53:56;11.50;99.90
7004;DHT22;3542;48.812;9.146;2023-03-14T11:56:39;11.50;99.90
7004;DHT22;3542;48.812;9.146;2023-03-14T11:59:18;11.50;99.90
7004;DHT22;3542;48.812;9.146;2023-03-14T12:04:31;11.20;99.90
7004;DHT22;3542;48.812;9.146;2023-03-14T12:07:03;11.40;99.90
7004;DHT22;3542;48.812;9.146;2023-03-14T12:09:32;11.60;99.90
7004;DHT22;3542;48.812;9.146;2023-03-14T12:12:01;11.90;99.90
7004;DHT22;3542;48.812;9.146;2023-03-14T12:14:30;12.20;99.90
7004;DHT22;3542;48.812;9.146;2023-03-14T12:19:44;12.10;99.90
7004;DHT22;3542;48.812;9.146;2023-03-14T12:22:32;11.90;99.90
7004;DHT22;3542;48.812;9.146;2023-03-14T12:25:02;11.70;99.90
7004;DHT22;3542;48.812;9.146;2023-03-14T12:27:42;11.50;99.90
7004;DHT22;3542;48.812;9.146;2023-03-14T12:35:52;12.00;99.90
7004;DHT22;3542;48.812;9.146;2023-03-14T12:43:46;11.40;99.90
7004;DHT22;3542;48.812;9.146;2023-03-14T12:48:45;11.60;99.90
7004;DHT22;3542;48.812;9.146;2023-03-14T12:51:16;11.60;99.90
7004;DHT22;3542;48.812;9.146;2023-03-14T12:53:54;11.40;99.90
7004;DHT22;3542;48.812;9.146;2023-03-14T12:56:26;11.60;99.90
7004;DHT22;3542;48.812;9.146;2023-03-14T13:01:24;11.70;99.90
7004;DHT22;3542;48.812;9.146;2023-03-14T13:04:09;11.70;99.90
7004;DHT22;3542;48.812;9.146;2023-03-14T13:06:58;11.80;99.90
7004;DHT22;3542;48.812;9.146;2023-03-14T13:12:02;11.40;99.90
7004;DHT22;3542;48.812;9.146;2023-03-14T13:14:32;11.20;99.90
7004;DHT22;3542;48.812;9.146;2023-03-14T13:17:02;10.90;99.90
7004;DHT22;3542;48.812;9.146;2023-03-14T13:19:30;10.70;99.90
7004;DHT22;3542;48.812;9.146;2023-03-14T13:22:02;10.70;99.90
7004;DHT22;3542;48.812;9.146;2023-03-14T13:24:27;10.70;99.90
7004;DHT22;3542;48.812;9.146;2023-03-14T13:26:55;10.60;99.90
7004;DHT22;3542;48.812;9.146;2023-03-14T13:29:22;10.60;99.90
7004;DHT22;3542;48.812;9.146;2023-03-14T13:31:50;10.80;99.90
7004;DHT22;3542;48.812;9.146;2023-03-14T13:34:16;10.80;99.90
7004;DHT22;3542;48.812;9.146;2023-03-14T13:36:42;10.70;99.90
7004;DHT22;3542;48.812;9.146;2023-03-14T13:39:13;10.70;99.90
7004;DHT22;3542;48.812;9.146;2023-03-14T13:41:43;10.70;99.90
7004;DHT22;3542;48.812;9.146;2023-03-14T13:44:16;10.50;99.90
7004;DHT22;3542;48.812;9.146;2023-03-14T13:46:42;10.50;99.90
7004;DHT22;3542;48.812;9.146;2023-03-14T13:49:21;10.40;99.90
7004;DHT22;3542;48.812;9.146;2023-03-14T13:51:47;10.40;99.90
7004;DHT22;3542;48.812;9.146;2023-03-14T13:54:14;10.40;99.90
7004;DHT22;3542;48.812;9.146;2023-03-14T13:56:40;10.40;99.90
7004;DHT22;3542;48.812;9.146;2023-03-14T13:59:31;10.40;99.90
7004;DHT22;3542;48.812;9.146;2023-03-14T14:01:59;10.20;99.90
7004;DHT22;3542;48.812;9.146;2023-03-14T14:04:25;10.00;99.90
7004;DHT22;3542;48.812;9.146;2023-03-14T14:06:59;10.00;99.90
7004;DHT22;3542;48.812;9.146;2023-03-14T14:09:27;10.00;99.90
7004;DHT22;3542;48.812;9.146;2023-03-14T14:12:19;10.00;99.90
7004;DHT22;3542;48.812;9.146;2023-03-14T14:15:26;10.10;99.90
7004;DHT22;3542;48.812;9.146;2023-03-14T14:17:51;10.00;99.90
7004;DHT22;3542;48.812;9.146;2023-03-14T14:20:28;9.80;99.90
7004;DHT22;3542;48.812;9.146;2023-03-14T14:22:57;9.70;99.90
7004;DHT22;3542;48.812;9.146;2023-03-14T14:25:23;9.80;99.90
7004;DHT22;3542;48.812;9.146;2023-03-14T14:27:49;9.80;99.90
7004;DHT22;3542;48.812;9.146;2023-03-14T14:32:48;9.80;99.90
7004;DHT22;3542;48.812;9.146;2023-03-14T14:35:32;9.80;99.90
7004;DHT22;3542;48.812;9.146;2023-03-14T14:37:58;9.70;99.90
7004;DHT22;3542;48.812;9.146;2023-03-14T14:40:26;9.60;99.90
7004;DHT22;3542;48.812;9.146;2023-03-14T14:42:52;9.60;99.90
7004;DHT22;3542;48.812;9.146;2023-03-14T14:45:23;9.60;99.90
7004;DHT22;3542;48.812;9.146;2023-03-14T14:47:58;9.60;99.90
7004;DHT22;3542;48.812;9.146;2023-03-14T14:51:21;9.60;99.90
7004;DHT22;3542;48.812;9.146;2023-03-14T14:53:41;9.50;99.90
7004;DHT22;3542;48.812;9.146;2023-03-14T14:58:45;9.50;99.90
7004;DHT22;3542;48.812;9.146;2023-03-14T15:01:21;9.50;99.90
7004;DHT22;3542;48.812;9.146;2023-03-14T15:03:50;9.60;99.90
7004;DHT22;3542;48.812;9.146;2023-03-14T15:06:17;9.60;99.90
7004;DHT22;3542;48.812;9.146;2023-03-14T15:08:44;9.60;99.90
7004;DHT22;3542;48.812;9.146;2023-03-14T15:11:18;9.70;99.90
7004;DHT22;3542;48.812;9.146;2023-03-14T15:13:45;9.70;99.90
7004;DHT22;3542;48.812;9.146;2023-03-14T15:16:11;9.80;99.90
7004;DHT22;3542;48.812;9.146;2023-03-14T15:18:37;9.90;99.90
7004;DHT22;3542;48.812;9.146;2023-03-14T15:21:03;9.90;99.90
7004;DHT22;3542;48.812;9.146;2023-03-14T15:23:29;10.00;99.90
7004;DHT22;3542;48.812;9.146;2023-03-14T15:25:54;10.00;99.90
7004;DHT22;3542;48.812;9.146;2023-03-14T15:30:51;9.90;99.90
7004;DHT22;3542;48.812;9.146;2023-03-14T15:33:17;9.70;99.90
7004;DHT22;3542;48.812;9.146;2023-03-14T15:35:43;9.60;99.90
7004;DHT22;3542;48.812;9.146;2023-03-14T15:38:14;9.50;99.90
7004;DHT22;3542;48.812;9.146;2023-03-14T15:40:40;9.50;99.90
7004;DHT22;3542;48.812;9.146;2023-03-14T15:43:06;9.40;99.90
7004;DHT22;3542;48.812;9.146;2023-03-14T15:45:31;9.40;99.90
7004;DHT22;3542;48.812;9.146;2023-03-14T15:47:57;9.40;99.90
7004;DHT22;3542;48.812;9.146;2023-03-14T15:50:23;9.40;99.90
7004;DHT22;3542;48.812;9.146;2023-03-14T15:52:50;9.50;99.90
7004;DHT22;3542;48.812;9.146;2023-03-14T15:55:16;9.60;99.90
7004;DHT22;3542;48.812;9.146;2023-03-14T15:57:43;9.70;99.90
7004;DHT22;3542;48.812;9.146;2023-03-14T16:00:15;9.80;99.90
7004;DHT22;3542;48.812;9.146;2023-03-14T16:02:41;9.90;99.90
7004;DHT22;3542;48.812;9.146;2023-03-14T16:05:10;9.90;99.90
7004;DHT22;3542;48.812;9.146;2023-03-14T16:07:36;9.70;99.90
7004;DHT22;3542;48.812;9.146;2023-03-14T16:10:03;9.50;99.90
7004;DHT22;3542;48.812;9.146;2023-03-14T16:12:30;9.30;99.90
7004;DHT22;3542;48.812;9.146;2023-03-14T16:14:55;9.20;99.90
7004;DHT22;3542;48.812;9.146;2023-03-14T16:17:21;9.10;99.90
7004;DHT22;3542;48.812;9.146;2023-03-14T16:19:46;9.10;99.90
7004;DHT22;3542;48.812;9.146;2023-03-14T16:22:12;9.00;99.90
7004;DHT22;3542;48.812;9.146;2023-03-14T16:24:37;9.00;99.90
7004;DHT22;3542;48.812;9.146;2023-03-14T16:27:03;8.90;99.90
7004;DHT22;3542;48.812;9.146;2023-03-14T16:29:29;8.90;99.90
7004;DHT22;3542;48.812;9.146;2023-03-14T16:31:55;8.80;99.90
7004;DHT22;3542;48.812;9.146;2023-03-14T16:34:20;8.80;99.90
7004;DHT22;3542;48.812;9.146;2023-03-14T16:36:46;8.80;99.90
7004;DHT22;3542;48.812;9.146;2023-03-14T16:39:12;8.80;99.90
7004;DHT22;3542;48.812;9.146;2023-03-14T16:41:38;8.80;99.90
7004;DHT22;3542;48.812;9.146;2023-03-14T16:44:03;8.80;99.90
7004;DHT22;3542;48.812;9.146;2023-03-14T16:46:29;8.80;99.90
7004;DHT22;3542;48.812;9.146;2023-03-14T16:48:55;8.80;99.90
7004;DHT22;3542;48.812;9.146;2023-03-14T16:51:22;8.80;99.90
7004;DHT22;3542;48.812;9.146;2023-03-14T16:53:48;8.80;99.90
7004;DHT22;3542;48.812;9.146;2023-03-14T16:56:14;8.80;99.90
7004;DHT22;3542;48.812;9.146;2023-03-14T16:58:40;8.70;99.90
7004;DHT22;3542;48.812;9.146;2023-03-14T17:01:08;8.80;99.90
7004;DHT22;3542;48.812;9.146;2023-03-14T17:03:42;8.70;99.90
7004;DHT22;3542;48.812;9.146;2023-03-14T17:06:14;8.70;99.90
7004;DHT22;3542;48.812;9.146;2023-03-14T17:08:40;8.70;99.90
7004;DHT22;3542;48.812;9.146;2023-03-14T17:11:06;8.70;99.90
7004;DHT22;3542;48.812;9.146;2023-03-14T17:13:33;8.60;99.90
7004;DHT22;3542;48.812;9.146;2023-03-14T17:16:00;8.60;99.90
7004;DHT22;3542;48.812;9.146;2023-03-14T17:18:27;8.40;99.90
7004;DHT22;3542;48.812;9.146;2023-03-14T17:20:54;8.30;99.90
7004;DHT22;3542;48.812;9.146;2023-03-14T17:23:21;8.20;99.90
7004;DHT22;3542;48.812;9.146;2023-03-14T17:25:47;8.00;99.90
7004;DHT22;3542;48.812;9.146;2023-03-14T17:28:15;8.00;99.90
7004;DHT22;3542;48.812;9.146;2023-03-14T17:30:40;7.90;99.90
7004;DHT22;3542;48.812;9.146;2023-03-14T17:33:06;7.80;99.90
7004;DHT22;3542;48.812;9.146;2023-03-14T17:35:31;7.80;99.90
7004;DHT22;3542;48.812;9.146;2023-03-14T17:37:57;7.70;99.90
7004;DHT22;3542;48.812;9.146;2023-03-14T17:40:22;7.60;99.90
7004;DHT22;3542;48.812;9.146;2023-03-14T17:42:48;7.60;99.90
7004;DHT22;3542;48.812;9.146;2023-03-14T17:45:14;7.50;99.90
7004;DHT22;3542;48.812;9.146;2023-03-14T17:47:40;7.40;99.90
7004;DHT22;3542;48.812;9.146;2023-03-14T17:50:06;7.40;99.90
7004;DHT22;3542;48.812;9.146;2023-03-14T17:52:33;7.30;99.90
7004;DHT22;3542;48.812;9.146;2023-03-14T17:54:59;7.30;99.90
7004;DHT22;3542;48.812;9.146;2023-03-14T17:57:25;7.10;99.90
7004;DHT22;3542;48.812;9.146;2023-03-14T17:59:50;7.10;99.90
7004;DHT22;3542;48.812;9.146;2023-03-14T18:02:18;7.10;99.90
7004;DHT22;3542;48.812;9.146;2023-03-14T18:04:44;7.00;99.90
7004;DHT22;3542;48.812;9.146;2023-03-14T18:07:09;7.00;99.90
7004;DHT22;3542;48.812;9.146;2023-03-14T18:09:36;7.00;99.90
7004;DHT22;3542;48.812;9.146;2023-03-14T18:12:02;7.00;99.90
7004;DHT22;3542;48.812;9.146;2023-03-14T18:14:27;7.10;99.90
7004;DHT22;3542;48.812;9.146;2023-03-14T18:16:54;7.00;99.90
7004;DHT22;3542;48.812;9.146;2023-03-14T18:19:19;6.90;99.90
7004;DHT22;3542;48.812;9.146;2023-03-14T18:21:45;6.80;99.90
7004;DHT22;3542;48.812;9.146;2023-03-14T18:24:12;6.70;99.90
7004;DHT22;3542;48.812;9.146;2023-03-14T18:26:37;6.60;99.90
7004;DHT22;3542;48.812;9.146;2023-03-14T18:29:03;6.50;99.90
7004;DHT22;3542;48.812;9.146;2023-03-14T18:31:29;6.40;99.90
7004;DHT22;3542;48.812;9.146;2023-03-14T18:33:55;6.30;99.90
7004;DHT22;3542;48.812;9.146;2023-03-14T18:36:22;6.30;99.90
7004;DHT22;3542;48.812;9.146;2023-03-14T18:38:48;6.30;99.90
7004;DHT22;3542;48.812;9.146;2023-03-14T18:41:16;6.30;99.90
7004;DHT22;3542;48.812;9.146;2023-03-14T18:43:43;6.30;99.90
7004;DHT22;3542;48.812;9.146;2023-03-14T18:46:12;6.20;99.90
7004;DHT22;3542;48.812;9.146;2023-03-14T18:48:38;6.20;99.90
7004;DHT22;3542;48.812;9.146;2023-03-14T18:51:07;6.20;99.90